Merrill, IA (51038)

4:13 AM CDT on August 30, 2015 (GMT -0500)
South of LeMars | | Change Station
CLOSE
Current Station
Personal Weather Station
Location: LeMars, IA
Elevation: 1250 ft
Nearby Weather Stations

Elev 1250 ft 42.72 °N, 96.16 °W | Updated 60 seconds ago

Overcast
Overcast
62.8 °F
Feels Like 62.8 °F
N
3.8
Wind Variable Wind from SW

Today
High -- | Low -- °F
--% Chance of Precip.
Yesterday
High -- | Low -- °F
Precip. -- in
6:47 AM 8:03 PM
Waxing Gibbous, 99% visible
Pressure 30.02 in
Visibility 4.0 miles
Clouds Overcast 600 ft
Dew Point 62 °F
Humidity 96%
Rainfall 0.00 in
Snow Depth Not available.
UV 0 out of 12
Pollen 9.40 out of 12
Air Quality Not available.
Flu Activity Not available.
METAR KLRJ 300855Z AUTO 19010KT 4SM BR OVC006 18/17 A3002 RMK AO2
Pressure 30.02 in
Visibility 4.0 miles
Clouds Overcast 600 ft
Dew Point 62 °F
Humidity 96%
Rainfall 0.00 in
Snow Depth Not available.
UV 0 out of 12
Pollen 9.40 out of 12
Air Quality Not available.
Flu Activity Not available.
METAR KLRJ 300855Z AUTO 19010KT 4SM BR OVC006 18/17 A3002 RMK AO2

10-Day Weather Forecast

×

Almanac

Astronomy

Aug. 30, 2015 Rise Set
Actual Time
Civil Twilight
Nautical Twilight
Astronomical Twilight
Moon
Length of Visible Light
Length of Day
Tomorrow will be .
, % of the Moon is Illuminated

Today's Extremes

State Highs State Lows

Community

WunderPhotos

Upload Photos

1,850,909 photos uploaded!

WunderBlogs® & News

Nearby

Air Quality

  Air Quality AQ Index Pollutant
Not available.

Snow Depth

Station Depth Elevation

Earthquake Activity

City Distance Mag. Time & Date
Minimum magnitude displayed is 2.5.

Coastal Water Temperatures

Place Temperature

Stations

Nearby Weather Stations

Station Location Temp. Windchill Dew Point Humidity Wind Precip. Elev Updated Type